Time;durP1;ratioP1;P1;durP2;ratioP2;P2;SDS_P1;SDS_P2;PMS_P1;PMS_P2;Temp;Humidity;BMP_temperature;BMP_pressure;BME280_temperature;BME280_humidity;BME280_pressure;Samples;Min_cycle;Max_cycle;Signal;HPM_P1;HPM_P2
2022/03/20 00:00:28;;;;;;;28.65;16.40;;;5.50;94.80;;;;;;5009471;28;20393;-50
2022/03/20 00:02:55;;;;;;;27.55;16.50;;;5.70;94.50;;;;;;5008534;28;20377;-50
2022/03/20 00:05:21;;;;;;;28.95;16.52;;;5.70;94.20;;;;;;5009882;28;20451;-50
2022/03/20 00:07:46;;;;;;;29.88;17.35;;;5.70;94.40;;;;;;5009102;28;20385;-50
2022/03/20 00:10:14;;;;;;;25.73;15.20;;;6.20;94.50;;;;;;4992310;28;20417;-50
2022/03/20 00:12:40;;;;;;;29.75;17.38;;;5.70;94.20;;;;;;5009115;28;20377;-50
2022/03/20 00:15:07;;;;;;;27.80;16.33;;;5.70;94.30;;;;;;5009928;28;20416;-53
2022/03/20 00:17:34;;;;;;;31.10;17.48;;;5.70;94.10;;;;;;5010290;28;20391;-50
2022/03/20 00:19:59;;;;;;;30.30;18.55;;;5.70;94.40;;;;;;5008605;28;20450;-50
2022/03/20 00:22:26;;;;;;;30.48;17.85;;;5.60;94.20;;;;;;5001753;28;20404;-50
2022/03/20 00:24:52;;;;;;;30.20;17.80;;;7.30;95.40;;;;;;4992791;28;20459;-51
2022/03/20 00:27:19;;;;;;;28.13;17.10;;;5.70;94.90;;;;;;5002558;28;20393;-51
2022/03/20 00:29:44;;;;;;;30.45;16.65;;;5.60;95.30;;;;;;4998349;28;20422;-51
2022/03/20 00:32:12;;;;;;;30.15;16.42;;;5.50;95.80;;;;;;5001916;28;20665;-51
2022/03/20 00:34:38;;;;;;;31.75;16.75;;;5.50;96.40;;;;;;5009189;28;20392;-51
2022/03/20 00:37:06;;;;;;;30.48;17.25;;;5.40;96.50;;;;;;5009659;28;20395;-50
2022/03/20 00:39:33;;;;;;;29.70;17.80;;;5.10;97.00;;;;;;5007350;28;20415;-53
2022/03/20 00:41:58;;;;;;;28.88;17.95;;;4.90;97.10;;;;;;5008565;28;21031;-53
2022/03/20 00:44:24;;;;;;;28.42;17.10;;;4.90;97.30;;;;;;5009550;28;20373;-53
2022/03/20 00:46:50;;;;;;;28.38;17.00;;;4.90;97.50;;;;;;5008767;28;20435;-53
2022/03/20 00:49:16;;;;;;;30.75;16.50;;;4.90;97.50;;;;;;5009358;28;20420;-53
2022/03/20 00:51:43;;;;;;;26.65;16.80;;;4.80;98.10;;;;;;5008690;28;20393;-53
2022/03/20 00:54:10;;;;;;;33.25;17.40;;;4.80;98.60;;;;;;5009577;28;20464;-53
2022/03/20 00:56:36;;;;;;;31.75;16.92;;;4.80;99.30;;;;;;5008774;28;20385;-53
2022/03/20 00:59:03;;;;;;;31.17;17.63;;;4.70;99.70;;;;;;4990693;28;20426;-53
2022/03/20 01:01:29;;;;;;;31.38;18.30;;;4.60;99.90;;;;;;4989960;28;20394;-53
2022/03/20 01:03:55;;;;;;;34.47;18.37;;;4.50;99.90;;;;;;4988959;28;20439;-53
2022/03/20 01:06:22;;;;;;;27.50;17.13;;;4.50;99.90;;;;;;4989921;28;20493;-53
2022/03/20 01:08:49;;;;;;;28.50;17.07;;;4.50;99.90;;;;;;4988996;28;20926;-53
2022/03/20 01:11:15;;;;;;;29.20;17.13;;;4.30;99.90;;;;;;5009333;28;20446;-53
2022/03/20 01:13:42;;;;;;;30.98;16.63;;;4.30;99.90;;;;;;5011234;28;20407;-53
2022/03/20 01:16:07;;;;;;;31.35;17.60;;;4.20;99.90;;;;;;5012855;28;20392;-53
2022/03/20 01:18:33;;;;;;;28.67;16.80;;;4.20;99.90;;;;;;5012607;28;20754;-53
2022/03/20 01:20:59;;;;;;;29.90;16.58;;;4.30;99.90;;;;;;5010219;28;20421;-53
2022/03/20 01:23:25;;;;;;;28.75;17.33;;;5.30;99.90;;;;;;5012735;28;20384;-53
2022/03/20 01:25:51;;;;;;;29.67;17.40;;;4.30;99.90;;;;;;5003240;28;20382;-53
2022/03/20 01:28:19;;;;;;;29.25;16.70;;;4.40;99.90;;;;;;4994861;28;20426;-53
2022/03/20 01:30:47;;;;;;;29.80;17.53;;;4.50;99.90;;;;;;5011861;28;20424;-53
2022/03/20 01:33:16;;;;;;;27.10;15.95;;;4.60;99.90;;;;;;5011969;28;20392;-53
2022/03/20 01:35:42;;;;;;;33.60;18.08;;;4.50;99.90;;;;;;5011680;28;20380;-53
2022/03/20 01:38:08;;;;;;;29.73;17.73;;;4.50;99.90;;;;;;4995299;28;20860;-53
2022/03/20 01:40:34;;;;;;;28.03;16.70;;;4.60;99.90;;;;;;5012328;28;20381;-55
2022/03/20 01:43:01;;;;;;;28.58;17.58;;;5.10;99.90;;;;;;5011765;28;20527;-53
2022/03/20 01:45:27;;;;;;;31.05;18.23;;;5.30;99.90;;;;;;5012542;28;20385;-52
2022/03/20 01:47:54;;;;;;;28.58;17.52;;;4.60;99.90;;;;;;5011380;28;20394;-52
2022/03/20 01:50:24;;;;;;;30.40;17.10;;;4.50;99.90;;;;;;5012097;28;20429;-52
2022/03/20 01:52:51;;;;;;;27.65;17.25;;;4.40;99.90;;;;;;4993944;28;20396;-52
2022/03/20 01:55:19;;;;;;;29.77;17.33;;;4.40;99.90;;;;;;5012121;28;20381;-53
2022/03/20 01:57:45;;;;;;;29.33;18.10;;;4.50;99.90;;;;;;5011130;28;20749;-53
2022/03/20 02:00:14;;;;;;;31.40;17.87;;;4.60;99.90;;;;;;5011997;28;20473;-53
2022/03/20 02:02:40;;;;;;;35.55;18.63;;;4.50;99.90;;;;;;5011323;28;20377;-53
2022/03/20 02:05:10;;;;;;;33.28;18.15;;;4.50;99.90;;;;;;5011984;28;20908;-54
2022/03/20 02:07:37;;;;;;;31.60;18.27;;;4.40;99.90;;;;;;5011815;28;20389;-53
2022/03/20 02:10:05;;;;;;;28.98;17.20;;;4.50;99.90;;;;;;5011229;28;20490;-53
2022/03/20 02:12:31;;;;;;;28.75;17.70;;;4.40;99.90;;;;;;5011917;28;20387;-53
2022/03/20 02:15:01;;;;;;;26.88;17.13;;;5.10;99.90;;;;;;5011135;28;20384;-53
2022/03/20 02:17:30;;;;;;;28.05;16.77;;;4.40;99.90;;;;;;5011998;28;20481;-53
2022/03/20 02:20:03;;;;;;;27.30;17.33;;;5.70;99.90;;;;;;5010535;28;20408;-53
2022/03/20 02:22:32;;;;;;;29.42;17.77;;;4.40;99.90;;;;;;5011827;28;20409;-53
2022/03/20 02:25:04;;;;;;;33.17;17.30;;;4.40;99.90;;;;;;5009878;28;20377;-53
2022/03/20 02:27:32;;;;;;;28.02;16.80;;;5.80;99.90;;;;;;5010563;28;20389;-53
2022/03/20 02:30:03;;;;;;;26.85;17.05;;;4.50;99.90;;;;;;5010626;28;20474;-53
2022/03/20 02:32:31;;;;;;;32.15;17.45;;;4.30;99.90;;;;;;5011552;28;20385;-53
2022/03/20 02:35:04;;;;;;;26.95;16.33;;;4.30;99.90;;;;;;5010758;28;20516;-53
2022/03/20 02:37:31;;;;;;;30.75;16.48;;;4.30;99.90;;;;;;5011572;28;20389;-53
2022/03/20 02:39:58;;;;;;;27.48;16.35;;;5.10;99.90;;;;;;5010657;28;20400;-53
2022/03/20 02:42:26;;;;;;;28.55;16.38;;;4.30;99.90;;;;;;4993719;28;20747;-53
2022/03/20 02:44:54;;;;;;;28.80;16.53;;;4.40;99.90;;;;;;5010377;28;20803;-53
2022/03/20 02:47:26;;;;;;;31.73;18.50;;;4.40;99.90;;;;;;5011044;28;20399;-53
2022/03/20 02:49:56;;;;;;;29.45;17.75;;;4.50;99.90;;;;;;5010242;28;20555;-53
2022/03/20 02:52:30;;;;;;;30.10;17.23;;;4.70;99.90;;;;;;5011237;28;20389;-51
2022/03/20 02:55:00;;;;;;;31.43;18.10;;;4.80;99.70;;;;;;5010364;28;20395;-50
2022/03/20 02:57:27;;;;;;;32.47;17.75;;;4.90;98.90;;;;;;5010957;28;20400;-51
2022/03/20 02:59:52;;;;;;;29.73;18.45;;;4.90;98.30;;;;;;5010211;28;20392;-51
2022/03/20 03:02:18;;;;;;;29.00;17.27;;;4.80;98.30;;;;;;5011054;28;20403;-50
2022/03/20 03:04:44;;;;;;;28.92;17.58;;;4.80;98.30;;;;;;5010172;28;20381;-50
2022/03/20 03:07:10;;;;;;;28.57;17.43;;;4.90;98.30;;;;;;5010591;28;20404;-50
2022/03/20 03:12:21;;;;;;;29.10;16.38;;;6.00;98.80;;;;;;5010996;28;20463;-50
2022/03/20 03:17:31;;;;;;;26.35;16.15;;;4.80;98.00;;;;;;5010670;28;20489;-50
2022/03/20 03:19:57;;;;;;;30.40;17.23;;;4.90;98.40;;;;;;5009052;28;20475;-51
2022/03/20 03:22:26;;;;;;;31.98;17.77;;;4.90;98.50;;;;;;5002815;28;20388;-51
2022/03/20 03:24:56;;;;;;;30.70;17.70;;;6.80;99.90;;;;;;4989985;28;20390;-50
2022/03/20 03:27:22;;;;;;;29.05;17.38;;;4.90;99.40;;;;;;4990910;28;20386;-51
2022/03/20 03:29:47;;;;;;;30.20;17.50;;;4.80;99.80;;;;;;4990123;28;20410;-52
2022/03/20 03:32:13;;;;;;;29.40;17.65;;;4.90;99.70;;;;;;4989525;28;20742;-53
2022/03/20 03:37:23;;;;;;;27.05;16.88;;;4.70;99.70;;;;;;4990493;28;20461;-53
2022/03/20 03:39:49;;;;;;;28.53;17.67;;;4.70;99.90;;;;;;4989912;28;20450;-51
2022/03/20 03:42:15;;;;;;;30.97;17.67;;;4.60;99.90;;;;;;4990697;28;20486;-52
2022/03/20 03:44:41;;;;;;;30.77;17.90;;;5.90;99.90;;;;;;4990327;28;20439;-53
2022/03/20 03:47:07;;;;;;;30.45;17.38;;;4.50;99.90;;;;;;4990642;28;20437;-52
2022/03/20 03:49:35;;;;;;;28.42;17.33;;;4.50;99.90;;;;;;4990574;28;20433;-52
2022/03/20 03:52:02;;;;;;;30.27;18.40;;;4.60;99.90;;;;;;4989925;28;21087;-52
2022/03/20 03:54:28;;;;;;;30.67;18.02;;;4.60;99.90;;;;;;4990594;28;20445;-52
2022/03/20 03:56:53;;;;;;;32.08;18.77;;;5.50;99.90;;;;;;4989786;28;20850;-52
2022/03/20 03:59:19;;;;;;;29.88;17.73;;;4.60;99.90;;;;;;4990840;28;20489;-52
2022/03/20 04:01:46;;;;;;;30.77;18.57;;;4.60;99.90;;;;;;4972401;28;20382;-52
2022/03/20 04:04:14;;;;;;;33.60;17.17;;;4.70;99.90;;;;;;4990824;28;20404;-52
2022/03/20 04:06:40;;;;;;;30.15;17.98;;;4.80;99.90;;;;;;4999734;28;20392;-52
2022/03/20 04:09:05;;;;;;;29.10;16.92;;;4.70;99.90;;;;;;5009172;28;20408;-52
2022/03/20 04:11:32;;;;;;;29.40;16.98;;;4.60;99.90;;;;;;5010010;28;20742;-52
2022/03/20 04:13:58;;;;;;;30.35;17.58;;;4.60;99.90;;;;;;5008805;28;20402;-52
2022/03/20 04:16:23;;;;;;;31.67;17.83;;;4.70;99.90;;;;;;5009757;28;20389;-52
2022/03/20 04:18:50;;;;;;;28.77;18.02;;;4.70;99.90;;;;;;5009235;28;20711;-52
2022/03/20 04:21:16;;;;;;;29.65;18.65;;;4.90;99.90;;;;;;5009462;28;20416;-53
2022/03/20 04:23:45;;;;;;;32.25;18.38;;;4.80;99.90;;;;;;5009535;28;20480;-52
2022/03/20 04:26:14;;;;;;;31.67;17.80;;;4.70;99.90;;;;;;5009905;28;20393;-52
2022/03/20 04:28:40;;;;;;;30.13;17.50;;;4.80;99.90;;;;;;5009601;28;20385;-52
2022/03/20 04:31:06;;;;;;;32.80;17.92;;;4.70;99.90;;;;;;5009244;28;20854;-52
2022/03/20 04:33:32;;;;;;;34.00;19.33;;;6.90;99.90;;;;;;5009583;28;20392;-52
2022/03/20 04:35:58;;;;;;;29.73;17.10;;;4.40;99.90;;;;;;5001771;28;20430;-52
2022/03/20 04:38:25;;;;;;;31.35;17.95;;;4.30;99.90;;;;;;5007482;28;20463;-52
2022/03/20 04:40:52;;;;;;;34.40;19.13;;;4.50;99.90;;;;;;4988167;28;20398;-52
2022/03/20 04:43:18;;;;;;;33.95;19.25;;;4.50;99.90;;;;;;4998587;28;20381;-52
2022/03/20 04:45:44;;;;;;;28.37;17.20;;;4.40;99.90;;;;;;5009213;28;20435;-52
2022/03/20 04:59:06;;;;;;;28.45;17.70;;;4.70;99.90;;;;;;4993676;28;20745;-52
2022/03/20 05:01:31;;;;;;;29.10;17.70;;;4.50;99.90;;;;;;4998346;28;20388;-52
2022/03/20 05:03:58;;;;;;;32.65;18.00;;;6.20;99.90;;;;;;5012287;28;20391;-52
2022/03/20 05:06:24;;;;;;;34.60;19.08;;;4.60;99.90;;;;;;5011858;28;20562;-52
2022/03/20 05:08:49;;;;;;;34.65;18.73;;;4.70;99.90;;;;;;5009775;28;20410;-52
2022/03/20 05:13:59;;;;;;;32.87;19.60;;;4.80;99.90;;;;;;5009678;28;20376;-52
2022/03/20 05:16:25;;;;;;;35.77;19.63;;;4.90;99.90;;;;;;4993411;28;20383;-53
2022/03/20 05:18:51;;;;;;;34.77;18.97;;;4.90;99.90;;;;;;4975049;28;20413;-52
2022/03/20 05:21:16;;;;;;;33.83;19.17;;;7.20;99.90;;;;;;4993104;28;20493;-52
2022/03/20 05:23:42;;;;;;;35.77;19.40;;;5.00;99.90;;;;;;4992779;28;20393;-52
2022/03/20 05:26:08;;;;;;;30.35;18.63;;;5.00;99.90;;;;;;4993110;28;20390;-52
2022/03/20 05:28:33;;;;;;;32.10;18.53;;;4.90;99.90;;;;;;5011633;28;20385;-52
2022/03/20 05:30:59;;;;;;;35.10;19.20;;;4.80;99.90;;;;;;5008626;28;20476;-52
2022/03/20 05:33:25;;;;;;;30.77;18.13;;;4.70;99.90;;;;;;4994948;28;20400;-53
2022/03/20 05:35:51;;;;;;;36.00;19.25;;;4.70;99.90;;;;;;5012138;28;20381;-53
2022/03/20 05:38:17;;;;;;;34.13;18.65;;;4.70;99.90;;;;;;5012710;28;20431;-53
2022/03/20 05:40:44;;;;;;;31.60;19.40;;;4.70;99.90;;;;;;5011577;28;20404;-52
2022/03/20 05:43:10;;;;;;;31.77;18.80;;;4.80;99.90;;;;;;5012040;28;20381;-53
2022/03/20 05:45:39;;;;;;;33.87;19.70;;;5.00;99.90;;;;;;5012564;28;20716;-52
2022/03/20 05:48:05;;;;;;;30.20;18.40;;;5.00;99.90;;;;;;5011499;28;20403;-53
2022/03/20 05:50:31;;;;;;;31.00;19.58;;;5.00;99.90;;;;;;5012406;28;20515;-53
2022/03/20 05:52:56;;;;;;;36.90;19.42;;;5.10;99.90;;;;;;5011547;28;20937;-53
2022/03/20 05:58:01;;;;;;;31.70;19.70;;;5.30;99.90;;;;;;5012120;28;20381;-53
2022/03/20 05:58:12;;;;;;;33.42;18.65;;;6.20;99.90;;;;;;5011248;28;20381;-50
2022/03/20 06:00:41;;;;;;;33.22;18.88;;;5.50;99.90;;;;;;4994145;28;20400;-51
2022/03/20 06:03:07;;;;;;;32.85;19.60;;;5.60;99.90;;;;;;5003634;28;20390;-51
2022/03/20 06:05:33;;;;;;;35.35;19.17;;;5.70;99.90;;;;;;5012083;28;20383;-52
2022/03/20 06:07:59;;;;;;;34.20;19.20;;;5.90;99.90;;;;;;5011397;28;20377;-51
2022/03/20 06:10:25;;;;;;;32.20;18.77;;;6.10;99.90;;;;;;5011830;28;20429;-51
2022/03/20 06:12:51;;;;;;;33.95;18.63;;;6.20;99.90;;;;;;4997326;28;20429;-51
2022/03/20 06:15:16;;;;;;;33.80;20.23;;;6.70;99.90;;;;;;4992392;28;20402;-52
2022/03/20 06:17:47;;;;;;;32.35;18.98;;;6.70;99.90;;;;;;4992232;28;20375;-51
2022/03/20 06:20:15;;;;;;;33.93;19.47;;;6.80;99.90;;;;;;4991979;28;20502;-51
2022/03/20 06:22:43;;;;;;;32.73;20.13;;;7.00;99.90;;;;;;4992157;28;20390;-52
2022/03/20 06:25:09;;;;;;;34.95;19.50;;;7.10;99.90;;;;;;4991507;28;20475;-51
2022/03/20 06:27:42;;;;;;;37.08;20.90;;;7.40;99.90;;;;;;4991809;28;20976;-51
2022/03/20 06:30:10;;;;;;;32.25;19.13;;;7.80;99.40;;;;;;4991204;28;20442;-52
2022/03/20 06:32:37;;;;;;;37.58;20.85;;;7.80;98.70;;;;;;4990812;28;20413;-52
2022/03/20 06:35:11;;;;;;;34.30;20.90;;;8.10;98.10;;;;;;4990856;28;20895;-52
2022/03/20 06:37:38;;;;;;;32.60;19.75;;;8.40;97.60;;;;;;4991674;28;20965;-51
2022/03/20 06:40:05;;;;;;;37.85;20.45;;;8.40;97.10;;;;;;4991053;28;20441;-52
2022/03/20 06:42:31;;;;;;;34.70;20.23;;;8.60;96.80;;;;;;4991817;28;20391;-53
2022/03/20 06:44:59;;;;;;;32.15;19.50;;;9.10;96.20;;;;;;4990959;28;20382;-52
2022/03/20 06:47:26;;;;;;;32.53;19.90;;;9.60;95.00;;;;;;4991817;28;20391;-51
2022/03/20 06:49:53;;;;;;;33.08;21.00;;;10.00;93.70;;;;;;4991394;28;20899;-52
2022/03/20 06:52:21;;;;;;;35.53;19.83;;;10.40;92.50;;;;;;4991601;28;20442;-52
2022/03/20 06:54:46;;;;;;;32.28;20.50;;;10.80;91.80;;;;;;4990799;28;20934;-52
2022/03/20 06:57:13;;;;;;;35.00;20.40;;;11.30;90.70;;;;;;4991857;28;20412;-52
2022/03/20 06:59:39;;;;;;;35.20;20.25;;;11.70;87.70;;;;;;4991331;28;20395;-50
2022/03/20 07:02:05;;;;;;;33.70;21.23;;;12.10;85.90;;;;;;4989244;28;20383;-50
2022/03/20 07:04:31;;;;;;;34.42;20.63;;;12.30;83.90;;;;;;4998459;28;20442;-50
2022/03/20 07:06:58;;;;;;;34.75;20.63;;;12.40;83.80;;;;;;5008957;28;20428;-50
2022/03/20 07:09:23;;;;;;;33.55;20.90;;;12.60;82.20;;;;;;5009761;28;20516;-52
2022/03/20 07:11:49;;;;;;;33.37;21.63;;;13.40;80.20;;;;;;5009165;28;20813;-52
2022/03/20 07:14:14;;;;;;;33.87;21.33;;;14.00;76.50;;;;;;5009981;28;20905;-52
2022/03/20 07:16:43;;;;;;;31.92;21.85;;;14.40;72.40;;;;;;5009990;28;20389;-52
2022/03/20 07:19:10;;;;;;;33.43;23.03;;;15.00;69.70;;;;;;5006756;28;20396;-52
2022/03/20 07:21:35;;;;;;;34.10;22.40;;;14.70;66.00;;;;;;5010090;28;20417;-52
2022/03/20 07:24:02;;;;;;;31.70;22.20;;;14.70;66.50;;;;;;5008057;28;20415;-53
2022/03/20 07:29:30;;;;;;;34.03;21.88;;;14.40;63.20;;;;;;5003881;28;20487;-52
2022/03/20 07:32:02;;;;;;;32.47;22.30;;;14.40;63.70;;;;;;5009061;28;20506;-52
2022/03/20 07:34:28;;;;;;;32.92;22.48;;;14.90;63.10;;;;;;5009653;28;20426;-52
2022/03/20 07:36:54;;;;;;;35.38;22.08;;;15.40;60.50;;;;;;5008006;28;20424;-53
2022/03/20 07:39:20;;;;;;;35.47;21.23;;;15.10;59.80;;;;;;5010009;28;20452;-52
2022/03/20 07:41:45;;;;;;;33.65;22.80;;;15.00;59.50;;;;;;5009607;28;20893;-52
2022/03/20 07:44:11;;;;;;;33.72;22.67;;;15.50;59.10;;;;;;5008594;28;20408;-52
2022/03/20 07:46:38;;;;;;;32.80;22.30;;;15.60;58.80;;;;;;5010132;28;20797;-52
2022/03/20 07:49:04;;;;;;;32.45;22.77;;;15.80;58.40;;;;;;4991682;28;20416;-52
2022/03/20 07:51:30;;;;;;;32.00;22.92;;;16.20;57.00;;;;;;5009782;28;20440;-53
2022/03/20 07:53:57;;;;;;;34.22;24.85;;;15.70;56.60;;;;;;5009468;28;20381;-53
2022/03/20 07:56:23;;;;;;;36.08;27.83;;;15.60;57.20;;;;;;4999990;28;20395;-53
2022/03/20 07:58:54;;;;;;;33.17;24.83;;;16.10;56.80;;;;;;5008341;28;20440;-52
2022/03/20 08:01:20;;;;;;;32.08;24.65;;;16.80;55.50;;;;;;4993989;28;20528;-52
2022/03/20 08:03:45;;;;;;;35.03;25.38;;;16.90;55.50;;;;;;4989797;28;20481;-52
2022/03/20 08:06:11;;;;;;;34.53;26.83;;;17.10;54.70;;;;;;4997624;28;20790;-52
2022/03/20 08:08:39;;;;;;;35.97;26.13;;;17.20;53.20;;;;;;5009352;28;20396;-51
2022/03/20 08:11:05;;;;;;;34.63;27.33;;;17.70;53.30;;;;;;5008502;28;20435;-52
2022/03/20 08:13:31;;;;;;;35.50;29.43;;;18.00;51.90;;;;;;5009691;28;20385;-52
2022/03/20 08:15:57;;;;;;;36.47;29.67;;;18.60;51.60;;;;;;5008189;28;20758;-52
2022/03/20 08:18:23;;;;;;;34.03;27.30;;;18.80;49.40;;;;;;4991945;28;20384;-52
2022/03/20 08:20:49;;;;;;;34.00;26.10;;;18.70;49.10;;;;;;5008381;28;20420;-52
2022/03/20 08:23:15;;;;;;;35.80;26.83;;;18.10;49.10;;;;;;5012766;28;20443;-52
2022/03/20 08:25:42;;;;;;;33.20;26.00;;;18.50;49.50;;;;;;5013740;28;20404;-52
2022/03/20 08:28:09;;;;;;;36.80;29.75;;;18.80;49.00;;;;;;5004251;28;20450;-52
2022/03/20 08:30:36;;;;;;;37.20;29.40;;;18.90;47.70;;;;;;5001999;28;20418;-52
2022/03/20 08:33:02;;;;;;;33.85;26.85;;;19.00;47.90;;;;;;4992820;28;20390;-52
2022/03/20 08:35:27;;;;;;;34.75;29.23;;;19.20;47.30;;;;;;4993787;28;20387;-52
2022/03/20 08:37:53;;;;;;;33.70;28.40;;;20.30;46.70;;;;;;4992893;28;20386;-52
2022/03/20 08:40:21;;;;;;;33.67;28.05;;;20.90;45.60;;;;;;4993809;28;20390;-52
2022/03/20 08:42:56;;;;;;;31.65;24.00;;;21.20;44.20;;;;;;4993504;28;20389;-52
2022/03/20 08:45:24;;;;;;;34.13;24.13;;;21.20;43.80;;;;;;4994858;28;20389;-52
2022/03/20 08:47:50;;;;;;;35.03;25.00;;;21.50;42.60;;;;;;5004942;28;20448;-52
2022/03/20 08:50:17;;;;;;;34.20;23.95;;;21.60;42.60;;;;;;4993619;28;20852;-52
2022/03/20 08:52:46;;;;;;;31.33;22.60;;;21.10;42.50;;;;;;4993424;28;20394;-52
2022/03/20 08:55:13;;;;;;;33.42;23.80;;;21.70;42.30;;;;;;5008755;28;20392;-52
2022/03/20 08:57:51;;;;;;;33.78;28.55;;;21.90;41.40;;;;;;5012154;28;20408;-52
2022/03/20 09:00:18;;;;;;;36.88;27.42;;;22.10;40.90;;;;;;4994002;28;20386;-52
2022/03/20 09:02:45;;;;;;;35.08;25.17;;;21.90;40.50;;;;;;4993508;28;20461;-52
2022/03/20 09:05:12;;;;;;;34.63;25.97;;;21.70;40.90;;;;;;4993015;28;20421;-52
2022/03/20 09:07:42;;;;;;;32.90;24.58;;;21.80;40.80;;;;;;4975813;28;20490;-54
2022/03/20 09:10:09;;;;;;;30.45;23.52;;;22.00;41.20;;;;;;4992469;28;20614;-54
2022/03/20 09:12:42;;;;;;;33.63;24.42;;;22.00;40.60;;;;;;4993570;28;20378;-54
2022/03/20 09:15:12;;;;;;;33.53;24.23;;;22.00;40.90;;;;;;4992876;28;20415;-52
2022/03/20 09:20:23;;;;;;;35.55;24.48;;;22.80;39.10;;;;;;5011281;28;20479;-52
2022/03/20 09:22:50;;;;;;;33.67;27.85;;;22.80;38.70;;;;;;5007886;28;20432;-52
2022/03/20 09:25:16;;;;;;;34.63;25.90;;;24.00;37.30;;;;;;4991589;28;20814;-51
2022/03/20 09:27:41;;;;;;;34.22;25.15;;;23.80;37.90;;;;;;4998829;28;20407;-52
2022/03/20 09:30:08;;;;;;;32.58;24.27;;;23.60;37.50;;;;;;5007298;28;20559;-52
2022/03/20 09:32:33;;;;;;;35.75;25.05;;;23.70;37.40;;;;;;5002199;28;20401;-52
2022/03/20 09:34:59;;;;;;;34.80;25.38;;;24.20;37.40;;;;;;5007651;28;20409;-52
2022/03/20 09:37:26;;;;;;;36.88;27.80;;;24.00;36.60;;;;;;5001678;28;20535;-52
2022/03/20 09:39:51;;;;;;;36.63;28.77;;;23.40;36.80;;;;;;5005308;28;20963;-52
2022/03/20 09:42:20;;;;;;;32.20;24.50;;;23.10;37.40;;;;;;5002156;28;20606;-52
2022/03/20 09:44:46;;;;;;;36.22;24.95;;;23.70;37.30;;;;;;5008672;28;20404;-52
2022/03/20 09:47:13;;;;;;;31.73;24.20;;;24.40;36.30;;;;;;4990960;28;20401;-52
2022/03/20 09:49:39;;;;;;;33.00;25.10;;;24.40;37.40;;;;;;5007261;28;20424;-52
2022/03/20 09:52:06;;;;;;;35.95;32.05;;;24.70;35.90;;;;;;5007342;28;20873;-52
2022/03/20 09:54:33;;;;;;;32.90;28.30;;;25.70;35.00;;;;;;5008360;28;21249;-52
2022/03/20 09:57:04;;;;;;;34.65;29.83;;;25.20;35.30;;;;;;5007780;28;20412;-52
2022/03/20 09:59:30;;;;;;;35.50;26.77;;;25.60;35.00;;;;;;5009899;28;20389;-52
2022/03/20 10:02:04;;;;;;;33.05;28.67;;;24.20;35.60;;;;;;5007581;28;20409;-52
2022/03/20 10:04:34;;;;;;;35.07;28.90;;;22.00;37.10;;;;;;5006105;28;20406;-52
2022/03/20 10:07:00;;;;;;;37.35;29.98;;;20.90;38.40;;;;;;5006272;28;20492;-52
2022/03/20 10:09:26;;;;;;;35.03;27.13;;;21.10;39.00;;;;;;5008935;28;20445;-52
2022/03/20 10:11:54;;;;;;;34.63;26.40;;;20.30;39.40;;;;;;5006566;28;20400;-52
2022/03/20 10:14:31;;;;;;;32.33;24.40;;;18.90;42.20;;;;;;5008590;28;20404;-51
2022/03/20 10:17:09;;;;;;;30.45;25.80;;;17.60;44.60;;;;;;5006939;28;20388;-51
2022/03/20 10:19:36;;;;;;;32.05;24.27;;;17.10;46.40;;;;;;5008010;28;20547;-51
2022/03/20 10:22:05;;;;;;;33.88;21.92;;;16.70;47.00;;;;;;5008571;28;20478;-51
2022/03/20 10:24:33;;;;;;;32.65;23.38;;;15.90;48.20;;;;;;5009640;28;20475;-51
2022/03/20 10:26:59;;;;;;;34.25;23.35;;;15.90;48.50;;;;;;5008892;28;20408;-51
2022/03/20 10:29:25;;;;;;;32.90;24.53;;;16.20;48.70;;;;;;5009534;28;20420;-51
2022/03/20 10:31:53;;;;;;;35.67;24.45;;;16.00;49.20;;;;;;5008930;28;20385;-51
2022/03/20 10:34:20;;;;;;;35.47;25.38;;;16.50;49.20;;;;;;5008550;28;20407;-51
2022/03/20 10:36:46;;;;;;;35.17;24.63;;;16.70;48.80;;;;;;4991212;28;20511;-51
2022/03/20 10:39:19;;;;;;;34.23;24.90;;;16.90;49.40;;;;;;5008267;28;20399;-52
2022/03/20 10:41:46;;;;;;;31.00;24.03;;;17.00;49.30;;;;;;5006468;28;20407;-51
2022/03/20 10:44:18;;;;;;;33.50;24.27;;;17.00;50.80;;;;;;5008901;28;20435;-51
2022/03/20 10:46:59;;;;;;;32.67;24.05;;;17.20;49.80;;;;;;5009019;28;20750;-51
2022/03/20 10:49:25;;;;;;;31.67;23.35;;;17.30;50.10;;;;;;5009040;28;20506;-51
2022/03/20 10:52:06;;;;;;;31.63;22.30;;;17.50;49.60;;;;;;5006151;28;20401;-52
2022/03/20 10:54:49;;;;;;;28.63;21.65;;;17.70;50.20;;;;;;4989692;28;20503;-52
2022/03/20 10:57:15;;;;;;;30.25;23.00;;;18.10;50.10;;;;;;5009687;28;20585;-52
2022/03/20 10:59:42;;;;;;;28.75;22.67;;;18.50;49.60;;;;;;4989142;28;20417;-52
2022/03/20 11:02:25;;;;;;;32.80;24.77;;;18.70;48.30;;;;;;5002233;28;20401;-54
2022/03/20 11:04:53;;;;;;;32.22;24.67;;;18.90;48.00;;;;;;5006095;28;20428;-53
2022/03/20 11:07:20;;;;;;;33.03;24.33;;;18.60;48.10;;;;;;5009444;28;20784;-53
2022/03/20 11:09:55;;;;;;;33.90;25.45;;;18.40;48.40;;;;;;5004213;28;20498;-52
2022/03/20 11:12:28;;;;;;;31.40;23.85;;;18.30;48.80;;;;;;5005360;28;20405;-53
2022/03/20 11:15:02;;;;;;;29.40;22.77;;;18.10;48.80;;;;;;5007165;28;20401;-53
2022/03/20 11:17:42;;;;;;;31.92;23.63;;;18.00;49.70;;;;;;5002839;28;20464;-53
2022/03/20 11:20:11;;;;;;;30.88;22.75;;;18.50;49.50;;;;;;5001601;28;21050;-53
2022/03/20 11:22:42;;;;;;;31.38;23.88;;;18.00;47.90;;;;;;5008011;28;20412;-52
2022/03/20 11:25:09;;;;;;;28.88;21.98;;;19.00;48.70;;;;;;5008768;28;20604;-53
2022/03/20 11:27:40;;;;;;;28.65;21.98;;;19.40;48.10;;;;;;5003149;28;20422;-53
2022/03/20 11:30:07;;;;;;;31.37;22.73;;;19.50;48.50;;;;;;4987788;28;20407;-53
2022/03/20 11:32:34;;;;;;;29.67;22.73;;;19.70;47.60;;;;;;5007797;28;20408;-53
2022/03/20 11:35:03;;;;;;;30.70;23.38;;;19.50;48.30;;;;;;5007922;28;20399;-52
2022/03/20 11:37:47;;;;;;;29.47;22.20;;;19.60;48.40;;;;;;5009801;28;20389;-53
2022/03/20 11:40:15;;;;;;;30.97;21.83;;;19.40;48.50;;;;;;5007080;28;20443;-53
2022/03/20 11:42:42;;;;;;;31.60;22.10;;;19.50;49.10;;;;;;5007269;28;20476;-53
2022/03/20 11:45:09;;;;;;;27.83;20.75;;;19.40;49.00;;;;;;5008680;28;20416;-53
2022/03/20 11:47:40;;;;;;;30.33;22.38;;;19.30;49.00;;;;;;5005746;28;20416;-53
2022/03/20 11:50:39;;;;;;;30.45;22.73;;;18.90;50.00;;;;;;5012443;28;20439;-53
2022/03/20 11:53:05;;;;;;;29.67;21.75;;;18.20;50.50;;;;;;5002212;28;20417;-52
2022/03/20 11:55:41;;;;;;;30.33;21.60;;;17.60;50.30;;;;;;5008400;28;20439;-52
2022/03/20 11:58:20;;;;;;;34.63;21.67;;;17.70;51.00;;;;;;5005351;28;20415;-52
2022/03/20 12:01:03;;;;;;;31.23;22.02;;;17.90;51.40;;;;;;4996603;28;20925;-53
2022/03/20 12:03:53;;;;;;;29.80;20.83;;;18.20;50.80;;;;;;5007698;28;20427;-52
2022/03/20 12:06:43;;;;;;;26.88;20.85;;;18.60;50.50;;;;;;5004350;28;20443;-52
2022/03/20 12:09:31;;;;;;;28.83;20.10;;;18.80;50.10;;;;;;5006148;28;21052;-52
2022/03/20 12:12:37;;;;;;;29.93;20.83;;;18.80;49.90;;;;;;4993083;28;20872;-52
2022/03/20 12:15:10;;;;;;;29.25;21.27;;;18.60;50.20;;;;;;4974141;28;20894;-53
2022/03/20 12:17:58;;;;;;;28.92;22.30;;;18.30;49.90;;;;;;5007654;28;20571;-53
2022/03/20 12:20:51;;;;;;;28.10;22.37;;;18.60;50.60;;;;;;5001208;28;20928;-53
2022/03/20 12:23:33;;;;;;;27.75;20.60;;;18.80;50.10;;;;;;5008499;28;20920;-52
2022/03/20 12:26:17;;;;;;;27.08;21.15;;;18.60;50.30;;;;;;5007618;28;20408;-52
2022/03/20 12:28:43;;;;;;;31.02;21.35;;;18.50;50.20;;;;;;5009630;28;20388;-52
2022/03/20 12:31:08;;;;;;;29.10;21.87;;;18.60;50.80;;;;;;5008004;28;20413;-52
2022/03/20 12:33:34;;;;;;;29.47;21.47;;;19.00;50.30;;;;;;5006564;28;20396;-52
2022/03/20 12:36:00;;;;;;;29.33;21.57;;;19.20;49.70;;;;;;5006066;28;20758;-52
2022/03/20 12:38:34;;;;;;;26.90;19.38;;;19.30;48.90;;;;;;5008866;28;20388;-52
2022/03/20 12:41:26;;;;;;;33.60;22.08;;;19.00;48.90;;;;;;5005926;28;20870;-52
2022/03/20 12:44:00;;;;;;;27.80;20.40;;;18.70;49.50;;;;;;4986475;28;20415;-52
2022/03/20 12:46:37;;;;;;;30.00;20.38;;;18.40;49.80;;;;;;5003236;28;20405;-52
2022/03/20 12:49:04;;;;;;;33.33;21.65;;;18.20;49.80;;;;;;5000750;28;20403;-52
2022/03/20 12:51:32;;;;;;;30.52;21.95;;;18.20;50.00;;;;;;4998201;28;20769;-52
2022/03/20 12:54:04;;;;;;;31.48;20.58;;;18.10;50.50;;;;;;5007440;28;20389;-52
2022/03/20 12:56:32;;;;;;;29.55;20.02;;;17.90;50.00;;;;;;5007077;28;20443;-52
2022/03/20 12:58:57;;;;;;;29.50;20.50;;;18.00;50.40;;;;;;5003612;28;20451;-52
2022/03/20 13:01:23;;;;;;;31.70;19.95;;;18.40;50.10;;;;;;5006691;28;20413;-52
2022/03/20 13:03:49;;;;;;;35.60;20.00;;;17.10;48.50;;;;;;5005246;28;20408;-52
2022/03/20 13:06:15;;;;;;;30.00;20.17;;;20.00;50.20;;;;;;4991339;28;20408;-52